Time;durP1;ratioP1;P1;durP2;ratioP2;P2;SDS_P1;SDS_P2;PMS_P1;PMS_P2;Temp;Humidity;BMP_temperature;BMP_pressure;BME280_temperature;BME280_humidity;BME280_pressure;Samples;Min_cycle;Max_cycle;Signal;HPM_P1;HPM_P2
2023/04/01 00:00:24;;;;;;;8.10;5.75;;;;;;;10.40;87.33;100760.13;5071503;28;20474;-87
2023/04/01 00:02:50;;;;;;;6.90;5.70;;;;;;;10.41;87.28;100759.31;5071108;28;20116;-86
2023/04/01 00:05:16;;;;;;;7.43;5.68;;;;;;;10.22;87.28;100726.03;5070135;28;20485;-86
2023/04/01 00:07:42;;;;;;;8.38;5.97;;;;;;;9.98;86.91;100679.53;5072004;28;20029;-87
2023/04/01 00:10:11;;;;;;;7.53;5.85;;;;;;;10.26;87.46;100727.13;5070450;28;20032;-85
2023/04/01 00:12:38;;;;;;;7.43;5.80;;;;;;;9.96;87.11;100659.41;5070609;28;20043;-86
2023/04/01 00:15:06;;;;;;;8.20;5.90;;;;;;;9.87;87.11;100644.16;5059930;28;20060;-86
2023/04/01 00:17:32;;;;;;;7.53;5.60;;;;;;;10.03;87.00;100679.78;5052717;28;20025;-87
2023/04/01 00:19:57;;;;;;;7.95;5.88;;;;;;;10.38;87.23;100733.03;5070316;28;20085;-87
2023/04/01 00:22:24;;;;;;;8.02;5.80;;;;;;;10.14;86.97;100696.94;5069842;28;20033;-87
2023/04/01 00:24:50;;;;;;;8.60;5.85;;;;;;;10.15;86.58;100703.06;5063371;28;20513;-87
2023/04/01 00:27:16;;;;;;;6.38;5.38;;;;;;;9.97;86.62;100663.81;5066783;28;20024;-87
2023/04/01 00:29:42;;;;;;;8.70;5.80;;;;;;;10.05;86.93;100670.31;5064207;28;20029;-86
2023/04/01 00:32:08;;;;;;;7.70;5.47;;;;;;;10.12;86.84;100679.41;5081487;28;20151;-86
2023/04/01 00:34:34;;;;;;;7.35;5.80;;;;;;;10.19;86.77;100698.06;5054240;28;20032;-86
2023/04/01 00:37:00;;;;;;;8.38;5.72;;;;;;;10.14;86.56;100683.91;5071697;28;20478;-86
2023/04/01 00:39:26;;;;;;;8.27;5.47;;;;;;;10.21;86.67;100689.44;5071848;28;20097;-86
2023/04/01 00:41:51;;;;;;;8.98;5.65;;;;;;;10.17;86.75;100688.38;5070126;28;20036;-87
2023/04/01 00:44:21;;;;;;;8.02;5.53;;;;;;;10.33;86.62;100713.66;5071703;28;20025;-86
2023/04/01 00:46:47;;;;;;;7.75;5.80;;;;;;;10.10;86.08;100670.59;5070616;28;20608;-87
2023/04/01 00:49:14;;;;;;;7.38;5.55;;;;;;;9.99;86.48;100657.88;5071498;28;20025;-87
2023/04/01 00:51:41;;;;;;;8.25;5.60;;;;;;;10.08;86.25;100675.72;5071936;28;20036;-86
2023/04/01 00:54:07;;;;;;;7.65;5.80;;;;;;;9.95;86.49;100647.19;5070407;28;20405;-86
2023/04/01 00:56:40;;;;;;;9.05;5.78;;;;;;;10.36;86.32;100717.28;5070336;28;20422;-86
2023/04/01 00:59:14;;;;;;;7.20;5.40;;;;;;;10.36;86.44;100704.25;5070556;28;20028;-86
2023/04/01 01:01:40;;;;;;;7.78;5.50;;;;;;;10.42;85.99;100711.50;5070153;28;20028;-86
2023/04/01 01:04:06;;;;;;;8.15;5.82;;;;;;;10.18;85.89;100669.28;5070437;28;20021;-86
2023/04/01 01:06:38;;;;;;;;;;;;;;;10.43;85.99;100715.00;5071902;28;20028;-86
2023/04/01 01:09:22;;;;;;;6.72;5.18;;;;;;;10.41;86.00;100717.53;5071755;28;19912;-86
2023/04/01 01:12:08;;;;;;;7.35;5.75;;;;;;;10.38;86.39;100709.56;5071169;28;20087;-87
2023/04/01 01:14:55;;;;;;;6.75;5.43;;;;;;;10.35;86.18;100698.94;5070110;28;20417;-86
2023/04/01 01:17:44;;;;;;;7.78;5.80;;;;;;;10.30;86.00;100687.34;5069291;28;20040;-86
2023/04/01 01:20:19;;;;;;;8.57;5.82;;;;;;;10.39;86.11;100712.25;5060276;28;20036;-86
2023/04/01 01:23:09;;;;;;;8.05;5.55;;;;;;;10.22;86.31;100680.78;5070481;28;20028;-87
2023/04/01 01:25:46;;;;;;;9.07;5.90;;;;;;;10.37;85.90;100702.53;5069647;28;20028;-86
2023/04/01 01:28:22;;;;;;;7.53;5.55;;;;;;;10.36;86.24;100701.63;5071134;28;20024;-87
2023/04/01 01:31:00;;;;;;;7.72;5.40;;;;;;;10.39;85.79;100701.81;5069566;28;20100;-87
2023/04/01 01:33:36;;;;;;;8.30;5.80;;;;;;;10.29;86.05;100693.38;5070338;28;20028;-87
2023/04/01 01:36:05;;;;;;;9.18;5.93;;;;;;;10.32;85.88;100686.63;5058942;28;20047;-86
2023/04/01 01:38:32;;;;;;;6.70;5.20;;;;;;;10.25;85.97;100679.25;5070199;28;20063;-85
2023/04/01 01:40:59;;;;;;;7.22;5.78;;;;;;;10.29;85.91;100685.53;5069351;28;20035;-86
2023/04/01 01:43:29;;;;;;;5.93;4.93;;;;;;;9.93;85.89;100626.25;5070445;28;20036;-86
2023/04/01 01:45:58;;;;;;;8.05;5.68;;;;;;;10.40;85.92;100700.09;5068930;28;20569;-86
2023/04/01 01:48:25;;;;;;;7.00;5.55;;;;;;;10.16;85.74;100661.41;5069172;28;20047;-87
2023/04/01 01:50:51;;;;;;;7.53;5.53;;;;;;;10.18;85.73;100661.44;5070244;28;20104;-86
2023/04/01 01:53:16;;;;;;;6.60;5.28;;;;;;;10.32;85.49;100686.63;5068947;28;20551;-86
2023/04/01 01:55:45;;;;;;;7.45;5.90;;;;;;;10.39;85.77;100691.38;5070328;28;20032;-86
2023/04/01 01:58:27;;;;;;;6.88;5.47;;;;;;;10.19;85.75;100663.25;5070212;28;20036;-85
2023/04/01 02:00:55;;;;;;;6.72;5.20;;;;;;;10.42;85.52;100685.41;5070409;28;20043;-86
2023/04/01 02:03:23;;;;;;;7.18;5.55;;;;;;;10.46;85.00;100678.66;5068865;28;20111;-85
2023/04/01 02:05:50;;;;;;;6.20;5.43;;;;;;;10.35;85.14;100678.03;5086022;28;20494;-85
2023/04/01 02:08:29;;;;;;;6.10;5.10;;;;;;;10.06;85.09;100638.22;5052158;28;20390;-86
2023/04/01 02:11:01;;;;;;;7.55;5.68;;;;;;;10.13;85.65;100647.28;5061811;28;20040;-85
2023/04/01 02:13:54;;;;;;;6.55;5.13;;;;;;;10.32;85.11;100652.69;5048982;28;20047;-85
2023/04/01 02:16:31;;;;;;;7.03;5.53;;;;;;;10.03;85.06;100601.53;5048977;28;20025;-87
2023/04/01 02:18:58;;;;;;;7.63;5.47;;;;;;;10.09;85.40;100612.28;5048232;28;20704;-85
2023/04/01 02:21:26;;;;;;;7.30;5.32;;;;;;;10.44;85.16;100665.50;5051925;28;20017;-85
2023/04/01 02:23:53;;;;;;;6.57;5.05;;;;;;;10.44;84.95;100662.00;5085695;28;20025;-85
2023/04/01 02:26:19;;;;;;;5.97;5.15;;;;;;;10.27;85.64;100638.47;5068785;28;20478;-86
2023/04/01 02:28:46;;;;;;;6.93;5.15;;;;;;;10.06;85.84;100603.41;5068590;28;20078;-85
2023/04/01 02:31:14;;;;;;;6.22;5.00;;;;;;;10.15;85.92;100609.13;5048684;28;20112;-85
2023/04/01 02:33:40;;;;;;;7.32;5.57;;;;;;;10.42;85.45;100650.59;5064560;28;20056;-85
2023/04/01 02:36:06;;;;;;;7.30;5.50;;;;;;;10.16;85.27;100613.53;5060524;28;20451;-84
2023/04/01 02:38:32;;;;;;;7.97;5.88;;;;;;;10.30;85.09;100630.81;5063580;28;20044;-85
2023/04/01 02:41:00;;;;;;;6.93;5.35;;;;;;;10.21;85.32;100606.84;5068489;28;20512;-85
2023/04/01 02:43:26;;;;;;;7.22;5.38;;;;;;;10.27;84.86;100615.00;5070063;28;20032;-85
2023/04/01 02:45:51;;;;;;;6.45;5.10;;;;;;;10.30;84.90;100622.09;5070421;28;20020;-85
2023/04/01 02:48:17;;;;;;;8.10;5.13;;;;;;;10.07;85.11;100590.44;5072391;28;20135;-85
2023/04/01 02:50:42;;;;;;;7.18;5.00;;;;;;;10.28;85.08;100622.00;5071809;28;20625;-85
2023/04/01 02:53:08;;;;;;;7.10;5.38;;;;;;;10.17;84.92;100602.28;5072372;28;20512;-85
2023/04/01 02:55:34;;;;;;;6.65;5.28;;;;;;;10.28;85.00;100608.94;5072130;28;20016;-85
2023/04/01 02:58:00;;;;;;;6.32;5.22;;;;;;;10.32;85.05;100612.66;5072091;28;20093;-85
2023/04/01 03:00:26;;;;;;;6.03;5.05;;;;;;;10.19;85.01;100584.97;5073023;28;20099;-84
2023/04/01 03:02:52;;;;;;;7.07;5.30;;;;;;;10.39;84.93;100628.72;5073487;28;20036;-85
2023/04/01 03:05:18;;;;;;;5.43;4.82;;;;;;;10.33;84.76;100606.63;5072953;28;20751;-86
2023/04/01 03:07:43;;;;;;;7.35;5.45;;;;;;;9.88;84.91;100533.78;5071951;28;20032;-85
2023/04/01 03:10:10;;;;;;;6.60;5.20;;;;;;;10.17;84.73;100595.31;5072860;28;20408;-85
2023/04/01 03:12:35;;;;;;;6.18;5.00;;;;;;;9.98;84.95;100580.41;5073023;28;20028;-85
2023/04/01 03:15:01;;;;;;;7.20;5.05;;;;;;;10.17;84.71;100591.84;5071604;28;20045;-85
2023/04/01 03:17:26;;;;;;;8.52;5.35;;;;;;;10.22;84.83;100602.50;5071492;28;20056;-84
2023/04/01 03:19:52;;;;;;;6.07;5.15;;;;;;;10.26;84.89;100609.69;5072876;28;20394;-85
2023/04/01 03:22:20;;;;;;;6.85;5.35;;;;;;;10.10;84.94;100574.06;5072727;28;20409;-84
2023/04/01 03:24:47;;;;;;;6.03;4.80;;;;;;;10.43;84.92;100626.25;5072810;28;20031;-84
2023/04/01 03:27:13;;;;;;;6.47;5.10;;;;;;;10.32;84.81;100607.44;5071370;28;20115;-84
2023/04/01 03:29:39;;;;;;;5.55;4.53;;;;;;;10.23;84.87;100591.28;5071601;28;20108;-84
2023/04/01 03:32:04;;;;;;;6.38;5.30;;;;;;;10.17;84.74;100597.94;5071630;28;20032;-84
2023/04/01 03:34:30;;;;;;;7.40;5.38;;;;;;;9.92;84.39;100538.34;5064386;28;20032;-85
2023/04/01 03:36:56;;;;;;;8.20;5.10;;;;;;;10.07;84.68;100566.06;5082304;28;20093;-83
2023/04/01 03:39:22;;;;;;;7.72;5.15;;;;;;;10.14;84.28;100570.81;5071294;28;20052;-84
2023/04/01 03:41:47;;;;;;;6.15;4.93;;;;;;;10.45;84.53;100614.19;5072269;28;20056;-84
2023/04/01 03:44:13;;;;;;;7.95;5.30;;;;;;;10.31;84.51;100592.59;5071800;28;20024;-84
2023/04/01 03:46:39;;;;;;;5.30;4.80;;;;;;;10.28;84.13;100593.28;5071084;28;20025;-87
2023/04/01 03:49:11;;;;;;;6.28;4.97;;;;;;;10.44;84.24;100617.63;5071205;28;20615;-85
2023/04/01 03:51:41;;;;;;;6.85;5.10;;;;;;;10.18;84.08;100567.50;5085850;28;20437;-85
2023/04/01 03:54:06;;;;;;;6.45;4.90;;;;;;;10.41;84.23;100620.94;5071912;28;20036;-87
2023/04/01 03:56:32;;;;;;;6.43;5.15;;;;;;;10.41;84.48;100615.72;5072677;28;20085;-87
2023/04/01 03:58:58;;;;;;;6.70;4.97;;;;;;;10.33;84.43;100606.63;5071008;28;20123;-87
2023/04/01 04:01:24;;;;;;;6.10;5.13;;;;;;;10.43;84.28;100623.66;5070376;28;20024;-86
2023/04/01 04:03:50;;;;;;;;;;;;;;;10.45;84.25;100609.84;5070137;28;20036;-87
2023/04/01 04:06:17;;;;;;;7.88;4.95;;;;;;;10.21;84.13;100575.53;5069749;28;19912;-87
2023/04/01 04:08:44;;;;;;;5.70;4.65;;;;;;;10.42;84.37;100609.72;5057778;28;20024;-86
2023/04/01 04:11:10;;;;;;;6.20;4.95;;;;;;;10.19;84.15;100583.25;5070137;28;20071;-87
2023/04/01 04:13:35;;;;;;;5.97;4.90;;;;;;;10.40;84.21;100603.50;5068915;28;20485;-86
2023/04/01 04:16:02;;;;;;;5.63;4.70;;;;;;;10.43;83.69;100607.97;5069855;28;20032;-86
2023/04/01 04:18:28;;;;;;;5.93;4.53;;;;;;;10.17;84.37;100590.13;5071776;28;20024;-86
2023/04/01 04:20:54;;;;;;;6.43;4.57;;;;;;;10.08;84.00;100568.75;5071110;28;20056;-86
2023/04/01 04:23:20;;;;;;;8.90;5.18;;;;;;;10.43;84.36;100628.88;5072638;28;20067;-86
2023/04/01 04:25:59;;;;;;;5.90;4.68;;;;;;;10.40;84.54;100624.38;5072264;28;20036;-86
2023/04/01 04:28:26;;;;;;;5.47;4.60;;;;;;;10.39;84.25;100615.66;5071162;28;20097;-83
2023/04/01 04:30:51;;;;;;;6.30;4.68;;;;;;;10.41;84.45;100617.44;5071156;28;20409;-86
2023/04/01 04:33:17;;;;;;;6.05;4.53;;;;;;;10.24;84.18;100586.09;5070553;28;20036;-86
2023/04/01 04:35:43;;;;;;;5.97;4.65;;;;;;;10.25;83.99;100584.41;5071363;28;20025;-86
2023/04/01 04:38:08;;;;;;;6.50;4.55;;;;;;;10.42;84.16;100614.03;5071319;28;20049;-87
2023/04/01 04:40:36;;;;;;;5.47;4.38;;;;;;;10.18;84.17;100578.88;5070410;28;20154;-86
2023/04/01 04:43:02;;;;;;;5.72;4.70;;;;;;;10.18;83.81;100580.56;5071386;28;20036;-87
2023/04/01 04:45:28;;;;;;;5.97;4.82;;;;;;;10.30;83.97;100609.06;5070077;28;20016;-86
2023/04/01 04:47:54;;;;;;;5.85;4.93;;;;;;;10.42;84.17;100616.66;5070275;28;20104;-86
2023/04/01 04:50:21;;;;;;;5.95;4.63;;;;;;;10.35;84.48;100624.16;5070216;28;20493;-87
2023/04/01 04:52:46;;;;;;;;;;;;;;;10.37;84.46;100614.69;5070914;28;20513;-87
2023/04/01 04:55:12;;;;;;;5.05;4.30;;;;;;;10.17;84.22;100582.28;5069950;28;19912;-86
2023/04/01 04:57:37;;;;;;;6.45;4.80;;;;;;;10.19;83.97;100578.03;5071505;28;20020;-86
2023/04/01 05:00:05;;;;;;;5.72;4.68;;;;;;;10.39;84.14;100609.53;5052865;28;20047;-87
2023/04/01 05:02:30;;;;;;;6.07;4.38;;;;;;;10.07;84.30;100556.53;5071059;28;20036;-87
2023/04/01 05:04:56;;;;;;;6.43;4.70;;;;;;;10.31;84.29;100597.81;5053245;28;20028;-86
2023/04/01 05:07:22;;;;;;;5.82;4.65;;;;;;;10.12;84.26;100555.06;5070334;28;20571;-85
2023/04/01 05:09:53;;;;;;;5.70;4.60;;;;;;;10.29;84.50;100586.38;5069310;28;20025;-86
2023/04/01 05:12:19;;;;;;;8.80;4.20;;;;;;;10.05;84.22;100546.81;5066468;28;20039;-85
2023/04/01 05:14:44;;;;;;;5.63;4.55;;;;;;;10.36;84.08;100597.22;5065772;28;20036;-86
2023/04/01 05:17:11;;;;;;;5.65;4.53;;;;;;;10.05;84.11;100536.41;5071143;28;20025;-87
2023/04/01 05:19:37;;;;;;;5.68;4.55;;;;;;;10.19;84.15;100558.88;5070121;28;20701;-84
2023/04/01 05:22:03;;;;;;;5.78;4.70;;;;;;;10.34;84.10;100580.59;5055390;28;20112;-86
2023/04/01 05:24:28;;;;;;;6.15;4.88;;;;;;;10.39;84.22;100586.97;5067390;28;20044;-86
2023/04/01 05:26:56;;;;;;;5.20;4.55;;;;;;;10.36;84.10;100586.78;5071214;28;20681;-88
2023/04/01 05:29:21;;;;;;;6.25;4.45;;;;;;;9.92;84.36;100501.84;5071123;28;20039;-86
2023/04/01 05:31:47;;;;;;;5.70;4.60;;;;;;;10.04;84.52;100522.47;5066817;28;20029;-87
2023/04/01 05:34:13;;;;;;;4.88;4.28;;;;;;;10.29;84.72;100571.63;5057956;28;20087;-88
2023/04/01 05:36:39;;;;;;;5.65;4.35;;;;;;;9.85;84.60;100502.34;5070199;28;20029;-88
2023/04/01 05:39:05;;;;;;;4.80;4.20;;;;;;;10.03;84.65;100515.44;5071153;28;20044;-87
2023/04/01 05:41:35;;;;;;;4.90;4.05;;;;;;;9.85;84.93;100481.47;5061598;28;20042;-91
2023/04/01 05:44:00;;;;;;;5.28;4.18;;;;;;;10.30;84.77;100552.53;5068539;28;20067;-89
2023/04/01 05:46:26;;;;;;;5.55;4.38;;;;;;;9.70;84.87;100449.41;5065850;28;20112;-88
2023/04/01 05:48:51;;;;;;;5.72;4.45;;;;;;;9.79;84.75;100462.91;5064103;28;20041;-89
2023/04/01 05:51:17;;;;;;;6.00;4.50;;;;;;;10.27;84.98;100554.06;5073710;28;20036;-87
2023/04/01 05:53:43;;;;;;;4.88;4.35;;;;;;;9.90;85.12;100481.72;5065799;28;20040;-87
2023/04/01 05:56:11;;;;;;;5.15;4.30;;;;;;;10.17;85.20;100531.81;5069701;28;20020;-88
2023/04/01 05:58:37;;;;;;;5.32;4.07;;;;;;;9.99;85.25;100485.72;5047617;28;20056;-88
2023/04/01 06:01:05;;;;;;;5.50;4.60;;;;;;;10.26;84.77;100528.78;5067257;28;20058;-88
2023/04/01 06:03:32;;;;;;;4.80;4.30;;;;;;;10.05;84.72;100490.31;5049045;28;20127;-87
2023/04/01 06:05:58;;;;;;;5.82;4.10;;;;;;;9.89;85.21;100466.91;5064615;28;20090;-90
2023/04/01 06:08:25;;;;;;;6.13;4.30;;;;;;;9.92;84.93;100474.88;5064724;28;20525;-89
2023/04/01 06:11:00;;;;;;;;;;;;;;;10.28;84.97;100532.38;5065961;28;20036;-91
2023/04/01 06:14:11;;;;;;;5.40;4.50;;;;;;;10.25;85.30;100527.91;5077040;28;19970;-90
2023/04/01 06:16:54;;;;;;;5.40;4.13;;;;;;;10.22;85.26;100530.31;5051114;28;20388;-91
2023/04/01 06:19:32;;;;;;;5.25;4.50;;;;;;;10.22;85.33;100525.09;5067820;28;20040;-90
2023/04/01 06:22:17;;;;;;;6.15;4.55;;;;;;;10.23;85.43;100524.31;5071079;28;20032;-87
2023/04/01 06:24:59;;;;;;;6.10;4.88;;;;;;;10.24;85.81;100519.97;5052821;28;20036;-89
2023/04/01 06:27:49;;;;;;;5.07;4.32;;;;;;;10.25;85.82;100521.78;5067607;28;20032;-89
2023/04/01 06:30:33;;;;;;;5.65;4.45;;;;;;;10.08;85.25;100492.22;5071847;28;20029;-89
2023/04/01 06:33:28;;;;;;;5.20;4.30;;;;;;;10.26;85.41;100521.84;5089233;28;20059;-89
2023/04/01 06:36:01;;;;;;;8.15;4.35;;;;;;;10.28;85.37;100521.94;5059867;28;20405;-87
2023/04/01 06:39:03;;;;;;;5.38;4.68;;;;;;;10.28;85.70;100527.16;5089601;28;20041;-87
2023/04/01 06:41:47;;;;;;;5.85;4.80;;;;;;;10.28;85.63;100524.53;5078650;28;20036;-88
2023/04/01 06:44:30;;;;;;;6.90;4.60;;;;;;;10.26;85.47;100527.06;5095122;28;20021;-88
2023/04/01 06:47:18;;;;;;;7.90;4.82;;;;;;;10.28;85.77;100529.75;5074497;28;20020;-87
2023/04/01 06:49:56;;;;;;;6.82;4.93;;;;;;;10.32;85.24;100523.91;5074079;28;20025;-86
2023/04/01 06:52:27;;;;;;;6.20;4.55;;;;;;;10.37;85.00;100523.34;5069683;28;20036;-87
2023/04/01 06:55:01;;;;;;;4.90;4.40;;;;;;;10.35;84.87;100518.84;5073829;28;20043;-88
2023/04/01 06:57:45;;;;;;;8.32;4.82;;;;;;;10.31;84.72;100509.97;5065766;28;20029;-87
2023/04/01 07:00:35;;;;;;;9.75;4.85;;;;;;;10.39;84.59;100526.91;5068722;28;20096;-87
2023/04/01 07:03:21;;;;;;;6.82;4.70;;;;;;;10.54;83.99;100534.63;5065326;28;20082;-88
2023/04/01 07:05:47;;;;;;;5.55;4.32;;;;;;;10.54;84.00;100521.56;5070062;28;20021;-88
2023/04/01 07:08:24;;;;;;;7.90;5.00;;;;;;;10.60;84.45;100536.63;5070695;28;20154;-87
2023/04/01 07:11:13;;;;;;;8.23;4.55;;;;;;;10.44;84.24;100505.38;5055437;28;20130;-87
2023/04/01 07:13:52;;;;;;;6.63;4.45;;;;;;;10.11;84.68;100434.97;5072581;28;20422;-88
2023/04/01 07:16:39;;;;;;;8.57;4.88;;;;;;;10.65;84.45;100523.84;5048612;28;20495;-87
2023/04/01 07:19:14;;;;;;;6.88;5.13;;;;;;;10.71;85.00;100534.56;5064612;28;20529;-87
2023/04/01 07:21:44;;;;;;;6.93;4.88;;;;;;;10.54;85.28;100502.38;5068999;28;20078;-87
2023/04/01 07:24:34;;;;;;;8.82;5.05;;;;;;;10.63;84.83;100508.09;5069584;28;20465;-87
2023/04/01 07:27:00;;;;;;;6.85;5.00;;;;;;;10.50;85.83;100480.47;5062338;28;20052;-88
2023/04/01 07:29:26;;;;;;;7.25;4.78;;;;;;;10.76;85.50;100520.03;5069472;28;20117;-87
2023/04/01 07:32:00;;;;;;;9.32;5.28;;;;;;;10.77;86.40;100520.09;5065669;28;20036;-87
2023/04/01 07:35:08;;;;;;;15.15;6.03;;;;;;;10.79;86.57;100523.69;5069524;28;20602;-88
2023/04/01 07:37:39;;;;;;;12.20;6.05;;;;;;;10.80;87.51;100519.34;5048419;28;20102;-87
2023/04/01 07:40:27;;;;;;;13.20;5.20;;;;;;;10.83;87.68;100510.75;5070101;28;20746;-88
2023/04/01 07:43:01;;;;;;;12.38;6.22;;;;;;;10.86;88.15;100505.69;5065973;28;20439;-88
2023/04/01 07:45:49;;;;;;;13.88;6.72;;;;;;;10.87;88.31;100499.66;5066897;28;20413;-87
2023/04/01 07:48:25;;;;;;;17.92;6.82;;;;;;;10.67;88.54;100463.03;5069383;28;20052;-87
2023/04/01 07:51:05;;;;;;;15.40;6.13;;;;;;;10.51;88.66;100437.88;5066733;28;20093;-88
2023/04/01 07:54:06;;;;;;;13.30;7.03;;;;;;;10.94;89.59;100505.25;5085755;28;20043;-87
2023/04/01 07:57:03;;;;;;;13.77;7.10;;;;;;;10.96;89.09;100487.94;5061794;28;20052;-88
2023/04/01 07:59:37;;;;;;;17.58;7.05;;;;;;;10.87;89.24;100458.75;5066103;28;20032;-87
2023/04/01 08:02:06;;;;;;;17.98;7.00;;;;;;;11.00;89.34;100475.88;5062862;28;20517;-87
2023/04/01 08:05:03;;;;;;;16.40;6.95;;;;;;;11.04;89.91;100469.09;5065498;28;20036;-87
2023/04/01 08:07:28;;;;;;;14.13;7.28;;;;;;;11.07;90.80;100459.69;5083580;28;20036;-87
2023/04/01 08:10:28;;;;;;;15.18;7.20;;;;;;;11.01;91.23;100454.19;5067922;28;20093;-87
2023/04/01 08:13:31;;;;;;;14.25;7.05;;;;;;;11.06;91.54;100450.06;5032761;28;20033;-86
2023/04/01 08:16:24;;;;;;;16.23;7.30;;;;;;;11.06;91.16;100444.81;5072785;28;20398;-86
2023/04/01 08:18:59;;;;;;;14.77;7.00;;;;;;;11.10;90.80;100453.72;5065138;28;20029;-87
2023/04/01 08:21:35;;;;;;;12.75;7.28;;;;;;;10.96;91.62;100427.84;5084345;28;20059;-87
2023/04/01 08:24:10;;;;;;;12.50;6.88;;;;;;;10.98;91.35;100439.28;5072820;28;20031;-87
2023/04/01 08:26:44;;;;;;;15.18;7.20;;;;;;;11.14;90.99;100453.03;5058831;28;20493;-86
2023/04/01 08:29:10;;;;;;;12.70;6.30;;;;;;;11.16;90.54;100454.88;5080970;28;20417;-87
2023/04/01 08:31:38;;;;;;;13.68;6.60;;;;;;;11.07;91.08;100430.03;5072438;28;20020;-86
2023/04/01 08:34:08;;;;;;;14.20;6.78;;;;;;;11.00;90.37;100411.47;5069481;28;20032;-86
2023/04/01 08:36:48;;;;;;;13.93;7.05;;;;;;;11.19;91.69;100436.72;5054731;28;20031;-86
2023/04/01 08:39:18;;;;;;;11.32;6.82;;;;;;;11.16;91.27;100436.59;5073809;28;20028;-87
2023/04/01 08:42:14;;;;;;;14.32;7.15;;;;;;;11.26;91.48;100437.94;5070659;28;20462;-87
2023/04/01 08:45:19;;;;;;;12.35;6.70;;;;;;;11.30;91.40;100428.47;5059525;28;20029;-86
2023/04/01 08:48:12;;;;;;;13.10;6.75;;;;;;;11.28;91.45;100428.44;5058447;28;20017;-87
2023/04/01 08:51:03;;;;;;;13.70;6.60;;;;;;;11.32;91.50;100419.00;5070498;28;20028;-86
2023/04/01 08:53:59;;;;;;;10.63;5.93;;;;;;;11.34;91.39;100418.22;5086077;28;20036;-87
2023/04/01 08:56:47;;;;;;;12.48;6.60;;;;;;;11.13;92.38;100375.44;5063764;28;20078;-87
2023/04/01 08:59:16;;;;;;;12.27;6.57;;;;;;;11.37;92.21;100414.88;5059001;28;20413;-88
2023/04/01 09:02:09;;;;;;;11.10;6.75;;;;;;;11.40;92.02;100402.81;5070254;28;20135;-87
2023/04/01 09:04:38;;;;;;;16.30;7.43;;;;;;;11.41;92.00;100399.41;5069834;28;20529;-87
2023/04/01 09:07:04;;;;;;;15.13;6.72;;;;;;;11.45;91.66;100395.22;5069805;28;20036;-88
2023/04/01 09:10:07;;;;;;;13.45;6.72;;;;;;;11.46;92.55;100391.75;5056168;28;20033;-87
2023/04/01 09:12:45;;;;;;;11.57;6.18;;;;;;;11.49;92.65;100388.38;5070283;28;20051;-88
2023/04/01 09:15:20;;;;;;;13.20;6.43;;;;;;;11.51;92.45;100386.72;5084294;28;20494;-88
2023/04/01 09:17:57;;;;;;;12.20;6.55;;;;;;;11.29;92.84;100338.72;5068548;28;20040;-88
2023/04/01 09:20:54;;;;;;;10.95;6.40;;;;;;;11.52;93.07;100375.44;5069781;28;20028;-88
2023/04/01 09:23:28;;;;;;;12.05;6.70;;;;;;;11.54;92.49;100371.19;5060972;28;20021;-88
2023/04/01 09:26:43;;;;;;;10.38;6.25;;;;;;;11.56;93.24;100377.38;5064295;28;20055;-89
2023/04/01 09:29:39;;;;;;;11.80;6.60;;;;;;;11.59;93.26;100385.34;5081021;28;20058;-88
2023/04/01 09:32:13;;;;;;;10.27;6.15;;;;;;;11.63;93.18;100376.81;5065454;28;20425;-88
2023/04/01 09:34:45;;;;;;;9.23;5.80;;;;;;;11.64;92.82;100367.22;5071460;28;20033;-88
2023/04/01 09:40:37;;;;;;;10.82;6.22;;;;;;;11.68;93.53;100351.72;5075663;28;20040;-88
2023/04/01 09:43:28;;;;;;;13.00;6.20;;;;;;;11.58;93.85;100331.28;5079349;28;20436;-87
2023/04/01 09:46:09;;;;;;;13.52;6.30;;;;;;;11.69;93.89;100348.28;5085218;28;20001;-88
2023/04/01 09:48:55;;;;;;;12.88;6.18;;;;;;;11.70;93.52;100334.38;5082484;28;20102;-88
2023/04/01 09:51:46;;;;;;;11.77;6.28;;;;;;;11.68;93.30;100325.56;5074398;28;20079;-88
2023/04/01 09:54:19;;;;;;;9.50;5.75;;;;;;;11.54;93.13;100297.97;5062338;28;20086;-87
2023/04/01 09:57:18;;;;;;;11.55;6.43;;;;;;;11.77;93.94;100328.59;5085604;28;20048;-88
2023/04/01 10:00:10;;;;;;;9.30;6.05;;;;;;;11.76;94.11;100308.47;5076089;28;20524;-88
2023/04/01 10:02:58;;;;;;;11.35;6.20;;;;;;;11.76;94.17;100302.38;5070936;28;20040;-90
2023/04/01 10:05:32;;;;;;;10.85;6.30;;;;;;;11.79;93.91;100303.41;5067122;28;20029;-89
2023/04/01 10:08:36;;;;;;;9.02;5.78;;;;;;;11.80;93.93;100297.31;5073328;28;20063;-87
2023/04/01 10:11:44;;;;;;;13.95;6.78;;;;;;;11.81;94.33;100300.84;5068565;28;20040;-88
2023/04/01 10:14:15;;;;;;;;;;;;;;;11.87;93.09;100303.69;5060526;28;20119;-88
2023/04/01 10:17:18;;;;;;;12.50;6.72;;;;;;;11.85;94.41;100304.47;5073754;28;19966;-87
2023/04/01 10:19:53;;;;;;;10.65;6.13;;;;;;;11.89;94.40;100301.19;5074265;28;20025;-87
2023/04/01 10:22:50;;;;;;;11.23;6.35;;;;;;;11.87;94.74;100297.56;5069478;28;20028;-87
2023/04/01 10:25:25;;;;;;;13.15;7.63;;;;;;;11.85;94.51;100288.78;5062276;28;20470;-87
2023/04/01 10:28:13;;;;;;;12.52;6.60;;;;;;;11.76;93.78;100257.91;5072445;28;20033;-86
2023/04/01 10:30:59;;;;;;;14.25;6.55;;;;;;;11.61;93.90;100227.66;5074097;28;20028;-86
2023/04/01 10:33:38;;;;;;;11.07;6.43;;;;;;;11.93;93.54;100269.97;5066576;28;20090;-88
2023/04/01 10:36:23;;;;;;;11.63;6.53;;;;;;;11.93;94.16;100262.13;5062773;28;20103;-89
2023/04/01 10:39:12;;;;;;;12.43;6.68;;;;;;;11.82;93.90;100237.22;5073832;28;20110;-87
2023/04/01 10:42:03;;;;;;;11.13;6.90;;;;;;;11.99;93.98;100254.50;5080573;28;20032;-86
2023/04/01 10:44:29;;;;;;;13.15;7.22;;;;;;;12.04;92.10;100246.84;5072627;28;20055;-88
2023/04/01 10:47:16;;;;;;;12.63;6.63;;;;;;;12.02;92.19;100246.81;5073075;28;20783;-87
2023/04/01 10:50:01;;;;;;;11.48;6.93;;;;;;;12.01;93.08;100234.53;5068919;28;20037;-88
2023/04/01 10:52:47;;;;;;;15.93;6.88;;;;;;;11.98;92.67;100215.19;5066395;28;20104;-90
2023/04/01 10:55:28;;;;;;;13.00;6.88;;;;;;;11.95;91.55;100210.75;5060070;28;20120;-88
2023/04/01 10:58:03;;;;;;;13.40;6.60;;;;;;;12.16;91.42;100226.38;5071645;28;20027;-89
2023/04/01 11:01:03;;;;;;;13.77;6.93;;;;;;;12.15;91.47;100223.69;5058371;28;20112;-89
2023/04/01 11:04:14;;;;;;;10.85;7.35;;;;;;;12.19;90.44;100213.44;5075353;28;20028;-87
2023/04/01 11:07:10;;;;;;;13.65;7.10;;;;;;;12.19;90.66;100209.91;5032754;28;20037;-88
2023/04/01 11:10:16;;;;;;;13.88;7.00;;;;;;;12.06;89.65;100181.50;5072441;28;20031;-88
2023/04/01 11:13:00;;;;;;;13.02;6.70;;;;;;;12.25;90.93;100201.41;5051913;28;20485;-88
2023/04/01 11:15:54;;;;;;;14.05;6.80;;;;;;;12.26;91.07;100195.34;5059040;28;20422;-88
2023/04/01 11:18:49;;;;;;;14.60;6.80;;;;;;;12.26;91.07;100191.00;5069366;28;20033;-88
2023/04/01 11:21:53;;;;;;;14.23;6.55;;;;;;;12.29;91.76;100191.09;5068010;28;20037;-88
2023/04/01 11:24:56;;;;;;;10.57;6.60;;;;;;;12.29;91.23;100177.13;5085031;28;20105;-89
2023/04/01 11:28:00;;;;;;;12.10;6.65;;;;;;;12.32;91.29;100169.38;5069926;28;20036;-88
2023/04/01 11:31:22;;;;;;;10.75;6.32;;;;;;;11.89;91.44;100090.16;5069422;28;20036;-88
2023/04/01 11:34:06;;;;;;;10.38;6.40;;;;;;;12.37;91.36;100171.34;5013955;28;20037;-87
2023/04/01 11:36:35;;;;;;;12.45;6.78;;;;;;;12.34;91.58;100149.38;5062639;28;20613;-88
2023/04/01 11:39:10;;;;;;;11.57;6.25;;;;;;;12.38;92.16;100156.50;5064297;28;20528;-87
2023/04/01 11:41:57;;;;;;;10.93;6.35;;;;;;;12.37;92.65;100153.00;5066920;28;20031;-87
2023/04/01 11:44:29;;;;;;;13.50;6.78;;;;;;;12.27;92.71;100135.19;5066506;28;20036;-86
2023/04/01 11:47:32;;;;;;;10.30;6.55;;;;;;;12.38;92.45;100156.50;5059154;28;20114;-87
2023/04/01 11:50:21;;;;;;;13.55;6.53;;;;;;;12.07;93.05;100091.69;5071517;28;20109;-86
2023/04/01 11:52:55;;;;;;;13.60;7.22;;;;;;;12.08;93.76;100081.25;5067095;28;20060;-87
2023/04/01 11:55:24;;;;;;;10.05;6.25;;;;;;;12.46;93.82;100138.47;5086126;28;20032;-88
2023/04/01 11:58:22;;;;;;;16.55;7.25;;;;;;;12.24;94.67;100103.66;5071172;28;20058;-87
2023/04/01 12:01:12;;;;;;;12.88;7.22;;;;;;;12.09;94.96;100080.44;5082192;28;20116;-87
2023/04/01 12:04:06;;;;;;;14.27;6.53;;;;;;;12.52;94.74;100136.09;5080854;28;20020;-87
2023/04/01 12:06:53;;;;;;;14.52;8.18;;;;;;;12.46;92.48;100133.25;5081277;28;20020;-89